• Join FlightAware (Why Join?)
  • Login
  • US Flag 
03:40AM EDT


 

Airport Tracker/Info


-or-


 

Live Flight TrackerFlight Track Log ✈ EJA922 ✈ 22-Oct-2013 ✈ KHPN - KVNY

Flight Track Log - Related Links

Times and Time Zones

All times are in EDT time to prevent confusion due to time zone crossing. See the EJA922 flight status page for this flight to view local times or setup timezone preferences in your user account.

Time Position Orientation Groundspeed Altitude Reporting Facility
EDT Latitude Longitude Course Direction KTS MPH feet Rate Location/Type
11:24PM 41.1000 -73.7833 274° West 199 229 3,300  Level New York TRACON
11:26PM 41.0667 -73.9525 255° West 253 291 9,100 2,820 Climbing New York Center
11:27PM 41.0453 -74.0450 253° West 264 304 11,700 2,400 Climbing New York Center
11:28PM 41.0172 -74.1619 252° West 293 337 13,900 2,100 Climbing New York Center
11:29PM 40.9886 -74.2814 252° West 327 376 15,900 1,560 Climbing New York Center
11:30PM 41.1075 -74.5947 274° West  Level Estimated
11:30PM 40.9622 -74.3928 253° West 348 400 17,100  Level New York Center
11:31PM 40.9264 -74.5392 252° West 369 425 17,000 -60 Descending New York Center
11:32PM 40.8956 -74.6581 251° West 381 438 17,000  Level New York Center
11:33PM 40.8592 -74.8097 252° West 388 447 17,000 540 Level New York Center
11:34PM 40.8256 -74.9419 251° West 388 447 18,100 1,500 Climbing New York Center
11:35PM 40.8206 -75.0761 267° West 380 437 20,000 1,860 Climbing New York Center
11:36PM 40.8239 -75.2161 272° West 375 432 21,900 1,920 Climbing New York Center
11:37PM 40.8228 -75.3478 269° West 370 426 23,900 2,160 Climbing New York Center
11:38PM 40.8261 -75.4769 272° West 365 420 26,300 1,920 Climbing New York Center
11:39PM 40.8292 -75.6061 272° West 365 420 27,800 1,440 Climbing New York Center
11:40PM 40.8322 -75.7378 272° West 365 420 29,200 1,320 Climbing New York Center
11:41PM 40.8331 -75.8642 271° West 365 420 30,500 960 Climbing New York Center
11:42PM 40.8336 -75.9958 270° West 365 420 31,200 840 Climbing New York Center
11:43PM 40.8381 -76.1250 273° West 365 420 32,200 900 Climbing New York Center
11:44PM 40.8375 -76.2292 270° West 365 420 33,000 780 Climbing New York Center
11:45PM 40.8392 -76.3747 271° West 365 420 33,800 900 Climbing New York Center
11:46PM 40.8411 -76.5094 271° West 365 420 34,800 1,020 Climbing New York Center
11:47PM 40.8431 -76.6386 271° West 365 420 35,900 960 Climbing New York Center
11:48PM 40.8447 -76.7703 271° West 365 420 36,800 780 Climbing New York Center
11:49PM 40.8442 -76.9047 270° West 365 420 37,500 600 Climbing New York Center
11:50PM 40.8475 -77.0367 272° West 365 420 38,000 240 Climbing New York Center
11:51PM 40.8483 -77.1769 270° West 370 426 38,000  Level New York Center
11:52PM 40.8486 -77.3250 270° West 385 443 38,000 240 Level New York Center
11:54PM 40.8511 -77.6533 271° West 400 460 38,900 480 Climbing Cleveland Center
11:55PM 40.8514 -77.7992 270° West 396 456 39,600 660 Climbing Cleveland Center
11:57PM 40.8511 -77.9439 270° West 392 451 40,300 660 Climbing Cleveland Center
11:58PM 40.8511 -78.0858 270° West 388 447 41,000 660 Climbing Cleveland Center
11:59PM 40.8506 -78.2267 270° West 386 444 41,700 660 Climbing Cleveland Center
12:00AM 40.8506 -78.3711 270° West 380 437 42,400 600 Climbing Cleveland Center
12:01AM 40.8497 -78.5061 270° West 370 426 43,000 240 Climbing Cleveland Center
12:02AM 40.8514 -78.6483 271° West 384 442 43,000  Level Cleveland Center
12:03AM 40.8464 -78.7831 267° West 374 430 43,000  Level Cleveland Center
12:04AM 40.8450 -78.9281 269° West 391 450 43,000  Level Cleveland Center
12:05AM 40.8419 -79.0792 269° West 413 475 43,000  Level Cleveland Center
12:06AM 40.8403 -79.2272 269° West 408 470 43,000  Level Cleveland Center
12:07AM 40.8397 -79.3753 270° West 406 467 43,000  Level Cleveland Center
12:08AM 40.8372 -79.5278 269° West 412 474 43,000  Level Cleveland Center
12:09AM 40.8344 -79.6742 269° West 409 471 43,000  Level Cleveland Center
12:10AM 40.8314 -79.8239 269° West 413 475 43,000  Level Cleveland Center
12:11AM 40.8289 -79.9731 269° West 412 474 43,000  Level Cleveland Center
12:12AM 40.8267 -80.1283 269° West 417 480 43,000  Level Cleveland Center
12:13AM 40.8236 -80.2814 269° West 420 483 43,000  Level Cleveland Center
12:14AM 40.8203 -80.4303 268° West 422 486 43,000  Level Cleveland Center
12:15AM 40.8167 -80.5844 268° West 419 482 43,000  Level Cleveland Center
12:16AM 40.8136 -80.7336 268° West 420 483 43,000  Level Cleveland Center
12:17AM 40.8097 -80.8878 268° West 424 488 43,000  Level Cleveland Center
12:18AM 40.8056 -81.0514 268° West 420 483 43,000  Level Cleveland Center
12:19AM 40.8006 -81.2097 268° West 424 488 43,000  Level Cleveland Center
12:20AM 40.7958 -81.3656 268° West 420 483 43,000  Level Cleveland Center
12:21AM 40.7900 -81.5219 267° West 422 486 43,000  Level Cleveland Center
12:22AM 40.7850 -81.6772 268° West 420 483 43,000  Level Cleveland Center
12:23AM 40.7797 -81.8331 267° West 419 482 43,000  Level Cleveland Center
12:24AM 40.7742 -81.9900 267° West 422 486 43,000  Level Cleveland Center
12:25AM 40.7686 -82.1456 267° West 421 484 43,000  Level Cleveland Center
12:25AM 40.7647 -82.2522 267° West 421 484 43,000  Level Indianapolis Center
12:26AM 40.7583 -82.4089 267° West 423 487 43,000  Level Indianapolis Center
12:27AM 40.7519 -82.5658 267° West 424 488 43,000  Level Indianapolis Center
12:28AM 40.7464 -82.7242 267° West 428 493 43,000  Level Indianapolis Center
12:29AM 40.7386 -82.8808 266° West 426 490 43,000  Level Indianapolis Center
12:30AM 40.7325 -83.0389 267° West 427 491 43,000  Level Indianapolis Center
12:31AM 40.7239 -83.2128 266° West 426 490 43,000  Level Indianapolis Center
12:33AM 40.7164 -83.3672 266° West 425 489 43,000  Level Indianapolis Center
12:35AM 40.7000 -83.7069 266° West 425 489 43,000  Level Cleveland Center
12:36AM 40.6919 -83.8608 266° West 424 488 43,000  Level Cleveland Center
12:36AM 40.6875 -83.9556 266° West 427 491 43,000  Level Indianapolis Center
12:37AM 40.6819 -84.1111 267° West 428 493 43,000  Level Indianapolis Center
12:38AM 40.6775 -84.2661 268° West 427 491 43,000  Level Indianapolis Center
12:39AM 40.6722 -84.4208 267° West 426 490 43,000  Level Indianapolis Center
12:40AM 40.6656 -84.5764 267° West 426 490 43,000  Level Indianapolis Center
12:41AM 40.6633 -84.6844 268° West 424 488 43,000  Level Chicago Center
12:42AM 40.6567 -84.8419 267° West 427 491 43,000  Level Chicago Center
12:43AM 40.6500 -84.9936 267° West 425 489 43,000  Level Chicago Center
12:44AM 40.6431 -85.1492 267° West 427 491 43,000  Level Chicago Center
12:45AM 40.6361 -85.3047 267° West 429 494 43,000  Level Chicago Center
12:46AM 40.6294 -85.4589 267° West 427 491 43,000  Level Chicago Center
12:47AM 40.6233 -85.6156 267° West 431 496 43,000  Level Chicago Center
12:48AM 40.6156 -85.7703 266° West 430 495 43,000  Level Chicago Center
12:49AM 40.6078 -85.9258 266° West 429 494 43,000  Level Chicago Center
12:50AM 40.6006 -86.0819 267° West 430 495 43,000  Level Chicago Center
12:51AM 40.5931 -86.2364 266° West 429 494 43,000  Level Chicago Center
12:52AM 40.5839 -86.3903 266° West 427 491 43,000  Level Chicago Center
12:53AM 40.5761 -86.5442 266° West 426 490 43,000  Level Chicago Center
12:54AM 40.5678 -86.7000 266° West 429 494 43,000  Level Chicago Center
12:55AM 40.5586 -86.8544 266° West 428 493 43,000  Level Chicago Center
12:56AM 40.5494 -87.0075 266° West 427 491 43,000  Level Chicago Center
12:57AM 40.5400 -87.1697 266° West 429 494 43,000  Level Chicago Center
12:58AM 40.5303 -87.3242 265° West 427 491 43,000  Level Chicago Center
12:59AM 40.5192 -87.5103 266° West 426 490 43,000  Level Chicago Center
01:00AM 40.5106 -87.6658 266° West 427 491 43,000  Level Chicago Center
01:01AM 40.4997 -87.8217 265° West 428 493 43,000  Level Chicago Center
01:02AM 40.4892 -87.9786 265° West 430 495 43,000  Level Chicago Center
01:03AM 40.4792 -88.1336 265° West 429 494 43,000  Level Chicago Center
01:04AM 40.4689 -88.2894 265° West 428 493 43,000  Level Chicago Center
01:05AM 40.4567 -88.4467 264° West 432 497 43,000  Level Chicago Center
01:06AM 40.4472 -88.5856 265° West 432 497 43,000  Level Chicago Center
01:07AM 40.4367 -88.7428 265° West 431 496 43,000  Level Chicago Center
01:08AM 40.4244 -88.8997 264° West 432 497 43,000  Level Chicago Center
01:09AM 40.4119 -89.0603 264° West 437 503 43,000  Level Chicago Center
01:10AM 40.3997 -89.2206 264° West 441 507 43,000  Level Chicago Center
01:11AM 40.3861 -89.3822 264° West 442 509 43,000  Level Chicago Center
01:12AM 40.3731 -89.5444 264° West 445 512 43,000  Level Chicago Center
01:13AM 40.3617 -89.6767 264° West 445 512 43,000  Level Kansas City Center
01:14AM 40.3481 -89.8403 264° West 446 513 43,000  Level Kansas City Center
01:15AM 40.3350 -90.0028 264° West 446 513 43,000  Level Kansas City Center
01:16AM 40.3206 -90.1667 263° West 447 514 43,000  Level Kansas City Center
01:17AM 40.3058 -90.3306 263° West 450 518 43,000  Level Kansas City Center
01:18AM 40.2914 -90.4939 263° West 449 517 43,000  Level Kansas City Center
01:19AM 40.2769 -90.6581 263° West 452 520 43,000  Level Kansas City Center
01:20AM 40.2617 -90.8211 263° West 452 520 43,000  Level Kansas City Center
01:21AM 40.2481 -90.9661 263° West 454 522 43,000  Level Kansas City Center
01:22AM 40.2297 -91.1628 263° West 456 525 43,000  Level Kansas City Center
01:23AM 40.2139 -91.3261 263° West 456 525 43,000  Level Kansas City Center
01:24AM 40.1969 -91.4892 262° West 456 525 43,000  Level Kansas City Center
01:25AM 40.1803 -91.6528 262° West 457 526 43,000  Level Kansas City Center
01:26AM 40.1647 -91.8169 263° West 457 526 43,000  Level Kansas City Center
01:27AM 40.1481 -91.9789 262° West 455 524 43,000  Level Kansas City Center
01:28AM 40.1317 -92.1408 263° West 452 520 43,000  Level Kansas City Center
01:29AM 40.1147 -92.3022 262° West 449 517 43,000  Level Kansas City Center
01:30AM 40.0983 -92.4511 262° West 447 514 43,000  Level Kansas City Center
01:31AM 40.0789 -92.6331 262° West 452 520 43,000  Level Kansas City Center
01:32AM 40.0619 -92.7919 262° West 449 517 43,000  Level Kansas City Center
01:33AM 40.0439 -92.9536 262° West 449 517 43,000  Level Kansas City Center
01:34AM 40.0261 -93.1133 262° West 448 516 43,000  Level Kansas City Center
01:35AM 40.0094 -93.2750 262° West 451 519 43,000  Level Kansas City Center
01:36AM 39.9906 -93.4344 261° West 448 516 43,000  Level Kansas City Center
01:37AM 39.9708 -93.5936 261° West 448 516 43,000  Level Kansas City Center
01:38AM 39.9519 -93.7522 261° West 448 516 43,000  Level Kansas City Center
01:39AM 39.9333 -93.9133 261° West 451 519 43,000  Level Kansas City Center
01:40AM 39.9142 -94.0711 261° West 445 512 43,000  Level Kansas City Center
01:41AM 39.8956 -94.2178 261° West 442 509 43,000  Level Kansas City Center
01:42AM 39.8747 -94.3961 261° West 447 514 43,000  Level Kansas City Center
01:43AM 39.8556 -94.5489 261° West 448 516 43,000  Level Kansas City Center
01:44AM 39.8361 -94.7011 261° West 448 516 43,000  Level Kansas City Center
01:45AM 39.8136 -94.8786 261° West 447 514 43,000  Level Kansas City Center
01:46AM 39.7942 -95.0306 261° West 448 516 43,000  Level Kansas City Center
01:47AM 39.7747 -95.1825 261° West 447 514 43,000  Level Kansas City Center
01:48AM 39.7547 -95.3347 260° West 449 517 43,000  Level Kansas City Center
01:49AM 39.7308 -95.5119 260° West 449 517 43,000  Level Kansas City Center
01:50AM 39.7111 -95.6625 260° West 446 513 43,000  Level Kansas City Center
01:51AM 39.6897 -95.8153 260° West 450 518 43,000  Level Kansas City Center
01:52AM 39.6650 -95.9928 260° West 451 519 43,000  Level Kansas City Center
01:53AM 39.6447 -96.1444 260° West 448 516 43,000  Level Kansas City Center
01:54AM 39.6228 -96.2953 259° West 446 513 43,000  Level Kansas City Center
01:55AM 39.5978 -96.4722 260° West 449 517 43,000  Level Kansas City Center
01:56AM 39.5769 -96.6236 260° West 447 514 43,000  Level Kansas City Center
01:57AM 39.5539 -96.7758 259° West 449 517 43,000  Level Kansas City Center
01:58AM 39.5275 -96.9439 259° West 449 517 43,000  Level Kansas City Center
01:59AM 39.5047 -97.1044 260° West 448 516 43,000  Level Kansas City Center
02:00AM 39.4822 -97.2575 259° West 451 519 43,000  Level Kansas City Center
02:01AM 39.4597 -97.4089 259° West 449 517 43,000  Level Kansas City Center
02:02AM 39.4331 -97.5853 259° West 454 522 43,000  Level Kansas City Center
02:03AM 39.4089 -97.7450 259° West 453 521 43,000  Level Kansas City Center
02:04AM 39.3858 -97.8914 259° West 452 520 43,000  Level Kansas City Center
02:05AM 39.3617 -98.0422 258° West 448 516 43,000  Level Kansas City Center
02:06AM 39.3336 -98.2239 259° West 456 525 43,000  Level Kansas City Center
02:07AM 39.3081 -98.3872 259° West 460 529 43,000  Level Kansas City Center
02:08AM 39.2814 -98.5503 258° West 464 534 43,000  Level Kansas City Center
02:09AM 39.2597 -98.6869 258° West 458 527 43,000  Level Kansas City Center
02:10AM 39.2286 -98.8692 258° West 464 534 43,000  Level Kansas City Center
02:11AM 39.2014 -99.0261 257° West 472 543 43,000  Level Kansas City Center
02:12AM 39.1756 -99.1881 258° West 465 535 43,000  Level Kansas City Center
02:13AM 39.1464 -99.3536 257° West 473 544 43,000  Level Kansas City Center
02:14AM 39.1186 -99.5147 258° West 466 536 43,000  Level Kansas City Center
02:15AM 39.0892 -99.6883 258° West 466 536 43,000  Level Kansas City Center
02:16AM 39.0619 -99.8447 257° West 468 539 43,000  Level Kansas City Center
02:17AM 39.0342 -100.0006 257° West 467 537 43,000  Level Kansas City Center
02:18AM 39.0025 -100.1819 257° West 467 537 43,000  Level Kansas City Center
02:19AM 38.9736 -100.3394 257° West 471 542 43,000  Level Kansas City Center
02:20AM 38.9461 -100.4947 257° West 470 541 43,000  Level Kansas City Center
02:21AM 38.9125 -100.6783 257° West 473 544 43,000  Level Kansas City Center
02:22AM 38.8842 -100.8342 257° West 470 541 43,000  Level Kansas City Center
02:23AM 38.8550 -100.9903 257° West 471 542 43,000  Level Kansas City Center
02:24AM 38.8253 -101.1464 256° West 472 543 43,000  Level Kansas City Center
02:25AM 38.7883 -101.3536 257° West 474 545 43,000  Level Denver Center
02:26AM 38.7594 -101.5094 257° West 471 542 43,000  Level Denver Center
02:27AM 38.7289 -101.6647 256° West 471 542 43,000  Level Denver Center
02:28AM 38.6944 -101.8458 256° West 472 543 43,000  Level Denver Center
02:29AM 38.6631 -102.0017 256° West 472 543 43,000  Level Denver Center
02:30AM 38.6339 -102.1575 257° West 473 544 43,000  Level Denver Center
02:31AM 38.5964 -102.3400 255° West 475 547 43,000  Level Denver Center
02:32AM 38.5664 -102.4961 256° West 475 547 43,000  Level Denver Center
02:33AM 38.5347 -102.6525 256° West 475 547 43,000  Level Denver Center
02:34AM 38.4978 -102.8339 255° West 475 547 43,000  Level Denver Center
02:35AM 38.4664 -102.9900 256° West 474 545 43,000  Level Denver Center
02:36AM 38.4344 -103.1458 255° West 475 547 43,000  Level Denver Center
02:37AM 38.3975 -103.3286 256° West 478 550 43,000  Level Denver Center
02:38AM 38.3636 -103.4847 255° West 477 549 43,000  Level Denver Center
02:39AM 38.3317 -103.6411 255° West 478 550 43,000  Level Denver Center
02:40AM 38.2989 -103.7964 255° West 477 549 43,000  Level Denver Center
02:41AM 38.2608 -103.9783 255° West 478 550 43,000  Level Denver Center
02:42AM 38.2272 -104.1325 255° West 476 548 43,000  Level Denver Center
02:43AM 38.1939 -104.2858 255° West 474 545 43,000  Level Denver Center
02:44AM 38.1544 -104.4672 255° West 478 550 43,000  Level Denver Center
02:46AM 38.1208 -104.6233 255° West 480 552 43,000  Level Denver Center
02:47AM 38.0858 -104.7794 254° West 482 555 43,000  Level Denver Center
02:48AM 38.0461 -104.9594 254° West 476 548 43,000  Level Denver Center
02:49AM 38.0119 -105.1144 254° West 477 549 43,000  Level Denver Center
02:50AM 37.9756 -105.2700 254° West 481 554 43,000  Level Denver Center
02:51AM 37.9350 -105.4508 254° West 479 551 43,000  Level Denver Center
02:52AM 37.9000 -105.6056 254° West 480 552 43,000  Level Denver Center
02:53AM 37.8636 -105.7597 253° West 479 551 43,000  Level Denver Center
02:54AM 37.8281 -105.9150 254° West 480 552 43,000  Level Denver Center
02:55AM 37.7847 -106.0964 253° West 483 556 43,000  Level Denver Center
02:56AM 37.7486 -106.2478 253° West 481 554 43,000  Level Denver Center
02:57AM 37.7061 -106.4278 253° West 481 554 43,000  Level Denver Center
02:58AM 37.6697 -106.5833 254° West 482 555 43,000  Level Denver Center
02:59AM 37.6319 -106.7372 253° West 481 554 43,000  Level Denver Center
03:00AM 37.5944 -106.8903 253° West 479 551 43,000  Level Denver Center
03:01AM 37.5517 -107.0703 253° West 480 552 43,000  Level Denver Center
03:02AM 37.5128 -107.2236 252° West 480 552 43,000  Level Denver Center
03:03AM 37.4750 -107.3792 253° West 484 557 43,000  Level Denver Center
03:04AM 37.4300 -107.5581 252° West 481 554 43,000  Level Denver Center
03:05AM 37.3917 -107.7139 253° West 484 557 43,000  Level Denver Center
03:06AM 37.3525 -107.8681 252° West 485 558 43,000  Level Denver Center
03:07AM 37.3139 -108.0208 252° West 481 554 43,000  Level Denver Center
03:08AM 37.2683 -108.2000 252° West 483 556 43,000  Level Denver Center
03:09AM 37.2294 -108.3522 252° West 482 555 43,000  Level Denver Center
03:10AM 37.1903 -108.5050 252° West 482 555 43,000  Level Denver Center
03:11AM 37.1433 -108.6828 252° West 483 556 43,000  Level Denver Center
03:12AM 37.1028 -108.8367 252° West 485 558 43,000  Level Denver Center
03:13AM 37.0622 -108.9908 252° West 488 562 43,000  Level Denver Center
03:14AM 37.0144 -109.1708 252° West 488 562 43,000  Level Denver Center
03:15AM 36.9739 -109.3253 252° West 489 563 43,000  Level Denver Center
03:16AM 36.9328 -109.4794 252° West 490 564 43,000  Level Denver Center
03:17AM 36.8844 -109.6575 251° West 488 562 43,000  Level Denver Center
03:18AM 36.8419 -109.8108 251° West 489 563 43,000  Level Denver Center
03:19AM 36.8008 -109.9631 251° West 485 558 43,000  Level Denver Center
03:20AM 36.7517 -110.1403 251° West 485 558 43,000  Level Denver Center
03:21AM 36.7144 -110.2747 251° West 483 556 43,000  Level Denver Center
03:22AM 36.6700 -110.4328 251° West 485 558 43,000  Level Denver Center
03:23AM 36.6267 -110.5908 251° West 483 556 43,000  Level Denver Center
03:24AM 36.5814 -110.7494 250° West 485 558 43,000  Level Denver Center
03:25AM 36.5372 -110.9075 251° West 485 558 43,000  Level Denver Center
03:26AM 36.4922 -111.0647 250° West 483 556 43,000  Level Denver Center
03:27AM 36.4464 -111.2222 250° West 484 557 43,000  Level Denver Center
03:28AM 36.4019 -111.3803 251° West 485 558 43,000  Level Denver Center
03:29AM 36.3550 -111.5375 250° West 485 558 43,000  Level Denver Center
03:30AM 36.3117 -111.6914 251° West 479 551 43,000  Level Los Angeles Center
03:31AM 36.2656 -111.8478 250° West 481 554 43,000  Level Los Angeles Center
03:32AM 36.2200 -112.0028 250° West 480 552 43,000  Level Los Angeles Center
03:33AM 36.1739 -112.1556 250° West 488 562 43,000  Level Los Angeles Center
03:34AM 36.1264 -112.3167 250° West 483 556 43,000  Level Los Angeles Center
03:35AM 36.0803 -112.4703 250° West 478 550 43,000  Level Los Angeles Center
03:36AM 36.0336 -112.6253 250° West 481 554 43,000  Level Los Angeles Center
03:37AM 35.9878 -112.7792 250° West 478 550 43,000  Level Los Angeles Center
03:38AM 35.9453 -112.9172 249° West 474 545 43,000  Level Los Angeles Center
03:39AM 35.8994 -113.0672 249° West 474 545 43,000  Level Los Angeles Center
03:40AM 35.8533 -113.2181 249° West 476 548 43,000  Level Los Angeles Center
03:41AM 35.8064 -113.3692 249° West 478 550 43,000  Level Los Angeles Center
03:42AM 35.7506 -113.5494 249° West 476 548 43,000  Level Los Angeles Center
03:43AM 35.7036 -113.7000 249° West 475 547 43,000  Level Los Angeles Center
03:44AM 35.6567 -113.8506 249° West 477 549 43,000  Level Los Angeles Center
03:45AM 35.6097 -114.0011 249° West 475 547 43,000  Level Los Angeles Center
03:46AM 35.5608 -114.1514 248° West 477 549 43,000  Level Los Angeles Center
03:47AM 35.5133 -114.2986 248° West 477 549 43,000  Level Los Angeles Center
03:48AM 35.4644 -114.4511 249° West 479 551 43,000  Level Los Angeles Center
03:49AM 35.4175 -114.6003 249° West 473 544 43,000  Level Los Angeles Center
03:50AM 35.3672 -114.7531 248° West 479 551 43,000  Level Los Angeles Center
03:51AM 35.3181 -114.9033 248° West 477 549 43,000  Level Los Angeles Center
03:52AM 35.2703 -115.0525 249° West 472 543 43,000  Level Los Angeles Center
03:53AM 35.2206 -115.2019 248° West 471 542 43,000 -420 Level Los Angeles Center
03:54AM 35.1694 -115.3603 248° West 474 545 42,200 -1,620 Descending Los Angeles Center
03:55AM 35.1208 -115.5044 248° West 464 534 39,800 -2,400 Descending Los Angeles Center
03:56AM 35.0744 -115.6444 248° West 449 517 37,400 -2,400 Descending Los Angeles Center
03:57AM 35.0272 -115.7864 248° West 452 520 35,000 -2,340 Descending Los Angeles Center
03:58AM 34.9792 -115.9292 248° West 454 522 32,800 -2,040 Descending Los Angeles Center
03:59AM 34.9308 -116.0711 247° West 454 522 31,000 -1,800 Descending Los Angeles Center
04:00AM 34.8817 -116.2153 247° West 458 527 29,200 -1,800 Descending Los Angeles Center
04:01AM 34.8403 -116.3700 252° West 473 544 27,400 -1,680 Descending Los Angeles Center
04:02AM 34.8242 -116.5322 263° West 481 554 25,900 -1,500 Descending Los Angeles Center
04:03AM 34.8036 -116.6939 261° West 483 556 24,500 -1,380 Descending Los Angeles Center
04:04AM 34.7856 -116.8397 261° West 447 514 23,200 -1,380 Descending Los Angeles Center
04:05AM 34.7678 -116.9858 262° West 436 502 21,800 -1,440 Descending Los Angeles Center
04:06AM 34.7481 -117.1400 261° West 452 520 20,400 -1,380 Descending Los Angeles Center
04:07AM 34.7281 -117.2933 261° West 457 526 19,100 -1,380 Descending Los Angeles Center
04:08AM 34.7072 -117.4444 261° West 452 520 17,700 -1,500 Descending Los Angeles Center
04:09AM 34.6842 -117.5928 259° West 446 513 16,100 -1,560 Descending Los Angeles Center
04:10AM 34.6617 -117.7394 259° West 441 507 14,600 -1,560 Descending Los Angeles Center
04:11AM 34.6400 -117.8844 260° West 436 502 13,000 -1,500 Descending Los Angeles Center
04:12AM 34.6208 -118.0128 260° West 390 449 11,600 -1,260 Descending Los Angeles Center
04:13AM 34.6042 -118.1178 259° West 322 371 10,500 -1,020 Descending Los Angeles Center
04:14AM 34.5894 -118.2072 259° West 304 350 9,600 -960 Descending Los Angeles Center
04:15AM 34.5750 -118.2994 259° West 284 327 8,600 -840 Descending Los Angeles Center
04:16AM 34.5619 -118.3786 259° West 294 338 8,000 -480 Descending Los Angeles Center
04:17AM 34.5247 -118.4800 246° West 284 327 7,700 -900 Descending Los Angeles Center
04:18AM 34.4556 -118.5142 202° Southwest 278 320 6,200 -1,320 Descending Los Angeles Center
04:19AM 34.3861 -118.5103 177° South 247 284 5,100 -1,260 Descending Los Angeles Center
04:20AM 34.3253 -118.5008 173° South 231 266 3,700 -1,380 Descending Los Angeles Center
04:21AM 34.2739 -118.4994 179° South 208 239 2,400 -1,200 Descending Los Angeles Center
04:22AM 34.2397 -118.4936 172° South 155 178 1,400 -840 Descending Los Angeles Center
04:23AM 34.1981 -118.4886 174° South 140 161 800 -600 Descending Los Angeles Center
04:25AM 34.2000 -118.4833 North  Level FlightAware Approximate